Soaring Guidance
Issued by NWS Reno, NV

Home | Current Version | Previous Version | Text Only | Print | Product List | Glossary On
Versions: 1 2 3 4 5 6 7 8 9 10 11 12 13
000
UXUS97 KREV 251347
SRGREV

SOARING FORECAST
NATIONAL WEATHER SERVICE - RENO NV
700 AM PDT SAT MAR 25 2017

THIS SOARING FORECAST IS FOR THE EASTERN SIERRA AND WESTERN NEVADA
WITH SPECIFIC INDICES FOR THE GREATER RENO AREA.

THIS FORECAST IS PREPARED DAILY BY 700 AM AND IS NOT UPDATED.

FOR CURRENT FLIGHT CONDITIONS...FORECASTS...AND ADVISORIES...ACCESS
YOUR LOCAL BRIEFING OUTLET OR FLIGHT SERVICE STATION.

*******************************************************************
FORECASTED LOCAL INDICES FOR RENO:        TODAY     YESTERDAY
FORECASTED MAX TEMP AT RENO (DEG F).....     57          57
FORECASTED TRIGGER TEMPERATURE (DEG F)..     45          52
   EXCEEDED YESTERDAY BY 1055 AM PDT
FORECASTED MAXIMUM ALTITUDE (FT MSL)....  13500       11400
FORECASTED SOARING INDEX (FPM)..........    705         492
FORECASTED K-INDEX.........VALID 18Z....     26          23
FORECASTED K-INDEX.........VALID 00Z....     20          26
FORECASTED LIFTED INDEX....VALID 18Z....      4           6
FORECASTED LIFTED INDEX....VALID 00Z....      7           5

AFTERNOON WINDS ALOFT FORECAST
MSL (FT) WIND/TEMP
9000  2612/-04
10000 2714/-05
12000 2917/-09
14000 3020/-11
16000 3123/-14
18000 3232/-17
24000 3351/-27
30000 3176/-43
34000 3296/-53
39000 3274/-62

SLIDE MOUNTAIN DATA:
     DATE       TIME     TEMP  DEWPT   RH         WIND (MPH)
                        (F)   (F)           | DIR  SPEED GUST
2017-03-25    05:50      22    22     97    | 152    6    7
2017-03-25    05:30      22    22     97    | 152    5    7
2017-03-25    05:20      22    22     97    | 152    7    9
2017-03-25    05:00      22    21     96    | 152    8    9

RENO TAF FORECAST:
KRNO 251129Z 2512/2612 VRB04KT P6SM FEW040 BKN070 BKN120
     FM251900 36006KT P6SM VCSH SCT040 BKN080
     FM252200 31010KT P6SM FEW040 SCT080 BKN110
     FM260400 VRB03KT P6SM SCT110 BKN200

CARSON CITY TAF FORECAST:
KCXP 251129Z 2512/2612 VRB04KT P6SM BKN050 OVC080
     FM251900 20009KT P6SM VCSH SCT040 BKN070 BKN110
     FM252200 26008KT P6SM FEW040 SCT070 BKN100
     FM260300 VRB03KT P6SM SCT110 BKN200

OUTLOOK FOR THE RENO-CARSON CITY-MINDEN AREA:
.SUNDAY...MOSTLY CLOUDY. CHANCE OF RAIN AND SNOW IN THE
AFTERNOON. SNOW LEVEL 6000 TO 6500 FEET. HIGHS 53 TO 58. LIGHT
WINDS BECOMING SOUTHWEST 10 TO 15 MPH WITH GUSTS UP TO 30 MPH IN
THE AFTERNOON.

SUNRISE AND SUNSET
MARCH 25 2017.........SUNRISE   654 AM PDT   SUNSET   717 PM PDT
MARCH 26 2017.........SUNRISE   652 AM PDT   SUNSET   718 PM PDT


USA.gov is the U.S. government's official web portal to all federal, state and local government web resources and services.